Time,TemperatureF,DewpointF,PressureIn,WindDirection,WindDirectionDegrees,WindSpeedMPH,WindSpeedGustMPH,Humidity,HourlyPrecipIn,Conditions,Clouds,dailyrainin,SoftwareType,DateUTC
2015-05-22 00:00:00,53.9,44.3,29.89,West,269,4.0,4.0,70,0.00,,,0.00,Wunderground v.1.12,2015-05-22 06:00:00,
2015-05-22 00:10:00,53.4,43.9,29.90,West,269,4.0,4.0,70,0.00,,,0.00,Wunderground v.1.12,2015-05-22 06:10:00,
2015-05-22 00:15:00,53.9,44.3,29.90,West,274,3.0,3.0,70,0.00,,,0.00,Wunderground v.1.12,2015-05-22 06:15:00,
2015-05-22 00:20:00,53.4,44.2,29.90,West,267,5.0,5.0,71,0.00,,,0.00,Wunderground v.1.12,2015-05-22 06:20:00,
2015-05-22 00:25:00,53.2,44.0,29.90,West,276,4.0,4.0,71,0.00,,,0.00,Wunderground v.1.12,2015-05-22 06:25:00,
2015-05-22 00:30:00,52.9,44.1,29.89,West,275,2.0,2.0,72,0.00,,,0.00,Wunderground v.1.12,2015-05-22 06:30:00,
2015-05-22 00:35:00,52.6,43.8,29.89,West,276,0.0,0.0,72,0.00,,,0.00,Wunderground v.1.12,2015-05-22 06:35:00,
2015-05-22 00:45:00,52.4,43.6,29.89,West,275,1.0,1.0,72,0.00,,,0.00,Wunderground v.1.12,2015-05-22 06:45:00,
2015-05-22 00:50:00,52.2,43.8,29.89,West,276,2.0,2.0,73,0.00,,,0.00,Wunderground v.1.12,2015-05-22 06:50:00,
2015-05-22 00:55:00,51.9,43.2,29.89,West,259,3.0,3.0,72,0.00,,,0.00,Wunderground v.1.12,2015-05-22 06:55:00,
2015-05-22 01:00:00,52.0,43.6,29.90,West,267,2.0,2.0,73,0.00,,,0.00,Wunderground v.1.12,2015-05-22 07:00:00,
2015-05-22 01:10:00,51.4,43.0,29.90,West,266,2.0,2.0,73,0.00,,,0.00,Wunderground v.1.12,2015-05-22 07:10:00,
2015-05-22 01:20:00,51.6,43.2,29.90,WSW,247,0.0,0.0,73,0.00,,,0.00,Wunderground v.1.12,2015-05-22 07:20:00,
2015-05-22 01:25:00,51.1,42.7,29.89,WSW,247,0.0,0.0,73,0.00,,,0.00,Wunderground v.1.12,2015-05-22 07:25:00,
2015-05-22 01:30:00,51.0,43.0,29.90,West,261,2.0,2.0,74,0.00,,,0.00,Wunderground v.1.12,2015-05-22 07:30:00,
2015-05-22 01:35:00,50.4,42.4,29.89,West,274,4.0,4.0,74,0.00,,,0.00,Wunderground v.1.12,2015-05-22 07:35:00,
2015-05-22 01:40:00,50.6,43.0,29.89,West,280,4.0,4.0,75,0.00,,,0.00,Wunderground v.1.12,2015-05-22 07:40:00,
2015-05-22 01:45:00,50.5,42.9,29.90,West,270,2.0,2.0,75,0.00,,,0.00,Wunderground v.1.12,2015-05-22 07:45:00,
2015-05-22 01:55:00,50.4,42.8,29.90,WSW,257,0.0,0.0,75,0.00,,,0.00,Wunderground v.1.12,2015-05-22 07:55:00,
2015-05-22 02:00:00,49.8,42.5,29.90,WSW,256,0.0,0.0,76,0.00,,,0.00,Wunderground v.1.12,2015-05-22 08:00:00,
2015-05-22 02:05:00,49.7,42.1,29.89,West,268,2.0,2.0,75,0.00,,,0.00,Wunderground v.1.12,2015-05-22 08:05:00,
2015-05-22 02:10:00,49.3,42.1,29.90,West,268,1.0,1.0,76,0.00,,,0.00,Wunderground v.1.12,2015-05-22 08:10:00,
2015-05-22 02:15:00,49.2,42.0,29.90,West,268,1.0,1.0,76,0.00,,,0.00,Wunderground v.1.12,2015-05-22 08:15:00,
2015-05-22 02:20:00,49.3,42.1,29.89,West,268,0.0,0.0,76,0.00,,,0.00,Wunderground v.1.12,2015-05-22 08:20:00,
2015-05-22 02:30:00,48.9,42.0,29.89,West,271,4.0,4.0,77,0.00,,,0.00,Wunderground v.1.12,2015-05-22 08:30:00,
2015-05-22 02:35:00,48.2,41.3,29.89,West,271,1.0,1.0,77,0.00,,,0.00,Wunderground v.1.12,2015-05-22 08:35:00,
2015-05-22 02:40:00,48.5,41.6,29.89,West,272,3.0,3.0,77,0.00,,,0.00,Wunderground v.1.12,2015-05-22 08:40:00,
2015-05-22 02:45:00,48.5,41.6,29.89,West,271,2.0,2.0,77,0.00,,,0.00,Wunderground v.1.12,2015-05-22 08:45:00,
2015-05-22 02:50:00,48.2,41.3,29.89,West,271,3.0,3.0,77,0.00,,,0.00,Wunderground v.1.12,2015-05-22 08:50:00,
2015-05-22 02:55:00,48.2,41.3,29.89,West,274,2.0,2.0,77,0.00,,,0.00,Wunderground v.1.12,2015-05-22 08:55:00,
2015-05-22 03:05:00,47.6,41.1,29.89,West,274,3.0,3.0,78,0.00,,,0.00,Wunderground v.1.12,2015-05-22 09:05:00,
2015-05-22 03:10:00,47.6,41.1,29.90,West,273,0.0,0.0,78,0.00,,,0.00,Wunderground v.1.12,2015-05-22 09:10:00,
2015-05-22 03:15:00,47.5,41.0,29.90,West,273,0.0,0.0,78,0.00,,,0.00,Wunderground v.1.12,2015-05-22 09:15:00,
2015-05-22 03:20:00,47.1,40.6,29.90,West,272,0.0,0.0,78,0.00,,,0.00,Wunderground v.1.12,2015-05-22 09:20:00,
2015-05-22 03:25:00,47.3,40.5,29.89,West,270,2.0,2.0,77,0.00,,,0.00,Wunderground v.1.12,2015-05-22 09:25:00,
2015-05-22 03:30:00,46.8,40.3,29.89,West,269,2.0,2.0,78,0.00,,,0.00,Wunderground v.1.12,2015-05-22 09:30:00,
2015-05-22 03:40:00,46.5,40.3,29.89,West,273,2.0,2.0,79,0.00,,,0.00,Wunderground v.1.12,2015-05-22 09:40:00,
2015-05-22 03:45:00,46.2,40.0,29.89,West,273,0.0,0.0,79,0.00,,,0.00,Wunderground v.1.12,2015-05-22 09:45:00,
2015-05-22 03:50:00,46.2,40.0,29.90,West,274,0.0,0.0,79,0.00,,,0.00,Wunderground v.1.12,2015-05-22 09:50:00,
2015-05-22 04:00:00,46.1,39.9,29.90,West,270,2.0,2.0,79,0.00,,,0.00,Wunderground v.1.12,2015-05-22 10:00:00,
2015-05-22 04:10:00,46.3,40.1,29.89,West,270,0.0,0.0,79,0.00,,,0.00,Wunderground v.1.12,2015-05-22 10:10:00,
2015-05-22 04:15:00,45.8,39.7,29.89,West,271,5.0,5.0,79,0.00,,,0.00,Wunderground v.1.12,2015-05-22 10:15:00,
2015-05-22 04:20:00,45.2,39.1,29.89,West,269,4.0,4.0,79,0.00,,,0.00,Wunderground v.1.12,2015-05-22 10:20:00,
2015-05-22 04:25:00,45.3,39.5,29.89,West,271,3.0,3.0,80,0.00,,,0.00,Wunderground v.1.12,2015-05-22 10:25:00,
2015-05-22 04:35:00,45.3,39.8,29.89,West,275,2.0,2.0,81,0.00,,,0.00,Wunderground v.1.12,2015-05-22 10:35:00,
2015-05-22 04:45:00,44.9,39.1,29.89,West,276,0.0,0.0,80,0.00,,,0.00,Wunderground v.1.12,2015-05-22 10:45:00,
2015-05-22 04:50:00,44.9,39.1,29.89,West,275,0.0,0.0,80,0.00,,,0.00,Wunderground v.1.12,2015-05-22 10:50:00,
2015-05-22 04:55:00,44.5,38.7,29.90,West,275,0.0,0.0,80,0.00,,,0.00,Wunderground v.1.12,2015-05-22 10:55:00,
2015-05-22 05:00:00,44.4,38.9,29.90,West,275,1.0,1.0,81,0.00,,,0.00,Wunderground v.1.12,2015-05-22 11:00:00,
2015-05-22 05:05:00,44.2,38.7,29.90,West,275,0.0,0.0,81,0.00,,,0.00,Wunderground v.1.12,2015-05-22 11:05:00,
2015-05-22 05:10:00,43.9,38.4,29.89,West,276,0.0,0.0,81,0.00,,,0.00,Wunderground v.1.12,2015-05-22 11:10:00,
2015-05-22 05:20:00,43.9,38.4,29.89,West,269,1.0,1.0,81,0.00,,,0.00,Wunderground v.1.12,2015-05-22 11:20:00,
2015-05-22 05:25:00,44.0,38.5,29.89,West,266,1.0,1.0,81,0.00,,,0.00,Wunderground v.1.12,2015-05-22 11:25:00,
2015-05-22 05:30:00,43.9,38.8,29.90,West,270,4.0,4.0,82,0.00,,,0.00,Wunderground v.1.12,2015-05-22 11:30:00,
2015-05-22 05:35:00,43.8,38.3,29.89,West,270,1.0,1.0,81,0.00,,,0.00,Wunderground v.1.12,2015-05-22 11:35:00,
2015-05-22 05:40:00,43.6,38.2,29.89,West,270,1.0,1.0,81,0.00,,,0.00,Wunderground v.1.12,2015-05-22 11:40:00,
2015-05-22 05:45:00,43.7,38.3,29.89,West,270,0.0,0.0,81,0.00,,,0.00,Wunderground v.1.12,2015-05-22 11:45:00,
2015-05-22 05:55:00,43.6,38.2,29.89,West,271,0.0,0.0,81,0.00,,,0.00,Wunderground v.1.12,2015-05-22 11:55:00,
2015-05-22 06:00:00,43.2,38.1,29.89,West,279,2.0,2.0,82,0.00,,,0.00,Wunderground v.1.12,2015-05-22 12:00:00,
2015-05-22 06:05:00,43.0,38.2,29.89,West,277,0.0,0.0,83,0.00,,,0.00,Wunderground v.1.12,2015-05-22 12:05:00,
2015-05-22 06:10:00,43.0,37.9,29.89,West,277,0.0,0.0,82,0.00,,,0.00,Wunderground v.1.12,2015-05-22 12:10:00,
2015-05-22 06:20:00,43.9,38.8,29.89,West,277,1.0,1.0,82,0.00,,,0.00,Wunderground v.1.12,2015-05-22 12:20:00,
2015-05-22 06:30:00,44.5,39.3,29.90,West,275,0.0,0.0,82,0.00,,,0.00,Wunderground v.1.12,2015-05-22 12:30:00,
2015-05-22 06:35:00,44.2,39.1,29.90,West,274,1.0,1.0,82,0.00,,,0.00,Wunderground v.1.12,2015-05-22 12:35:00,
2015-05-22 06:40:00,44.8,39.3,29.90,West,276,0.0,0.0,81,0.00,,,0.00,Wunderground v.1.12,2015-05-22 12:40:00,
2015-05-22 06:45:00,45.1,39.6,29.90,West,277,2.0,2.0,81,0.00,,,0.00,Wunderground v.1.12,2015-05-22 12:45:00,
2015-05-22 06:55:00,45.4,39.6,29.89,West,280,0.0,0.0,80,0.00,,,0.00,Wunderground v.1.12,2015-05-22 12:55:00,
2015-05-22 07:00:00,45.4,39.6,29.89,West,279,1.0,1.0,80,0.00,,,0.00,Wunderground v.1.12,2015-05-22 13:00:00,
2015-05-22 07:05:00,45.5,40.0,29.90,West,279,2.0,2.0,81,0.00,,,0.00,Wunderground v.1.12,2015-05-22 13:05:00,
2015-05-22 07:10:00,45.5,40.3,29.90,West,281,2.0,2.0,82,0.00,,,0.00,Wunderground v.1.12,2015-05-22 13:10:00,
2015-05-22 07:15:00,45.9,40.7,29.90,WNW,282,1.0,1.0,82,0.00,,,0.00,Wunderground v.1.12,2015-05-22 13:15:00,
2015-05-22 07:20:00,46.1,40.9,29.89,WNW,282,0.0,0.0,82,0.00,,,0.00,Wunderground v.1.12,2015-05-22 13:20:00,
2015-05-22 07:30:00,46.3,41.7,29.89,WNW,282,0.0,0.0,84,0.00,,,0.00,Wunderground v.1.12,2015-05-22 13:30:00,
2015-05-22 07:35:00,46.7,42.1,29.90,WNW,282,0.0,0.0,84,0.00,,,0.00,Wunderground v.1.12,2015-05-22 13:35:00,